createdAt,value
2018-07-09T00:00:36.499Z,1.87
2018-07-09T00:03:06.953Z,1.90
2018-07-09T00:05:37.890Z,1.80
2018-07-09T00:08:06.388Z,1.83
2018-07-09T00:10:46.372Z,3.17
2018-07-09T00:13:14.592Z,1.90
2018-07-09T00:15:43.039Z,2.20
2018-07-09T00:18:11.232Z,1.80
2018-07-09T00:20:39.543Z,1.87
2018-07-09T00:23:07.736Z,1.80
2018-07-09T00:25:36.937Z,1.97
2018-07-09T00:28:05.413Z,1.83
2018-07-09T00:30:33.634Z,2.10
2018-07-09T00:33:01.928Z,2.03
2018-07-09T00:35:30.136Z,2.07
2018-07-09T00:37:58.328Z,2.00
2018-07-09T00:40:26.549Z,2.00
2018-07-09T00:42:54.784Z,2.03
2018-07-09T00:45:22.995Z,2.13
2018-07-09T00:47:51.400Z,1.87
2018-07-09T00:50:19.636Z,1.90
2018-07-09T00:52:47.901Z,2.10
2018-07-09T00:55:16.103Z,2.20
2018-07-09T00:57:44.300Z,2.17
2018-07-09T01:00:12.520Z,2.30
2018-07-09T01:02:40.753Z,2.00
2018-07-09T01:05:08.959Z,2.00
2018-07-09T01:07:37.524Z,1.87
2018-07-09T01:10:05.797Z,1.60
2018-07-09T01:12:34.025Z,2.23
2018-07-09T01:15:02.254Z,1.83
2018-07-09T01:17:30.448Z,1.67
2018-07-09T01:19:58.660Z,2.17
2018-07-09T01:22:26.896Z,2.10
2018-07-09T01:24:55.119Z,2.03
2018-07-09T01:27:23.356Z,2.00
2018-07-09T01:29:51.645Z,2.63
2018-07-09T01:32:19.845Z,1.80
2018-07-09T01:34:48.040Z,2.10
2018-07-09T01:37:16.440Z,2.20
2018-07-09T01:39:44.635Z,2.03
2018-07-09T01:42:12.878Z,2.20
2018-07-09T01:44:41.105Z,2.10
2018-07-09T01:47:09.296Z,2.10
2018-07-09T01:49:37.504Z,2.23
2018-07-09T01:52:05.710Z,2.73
2018-07-09T01:54:33.922Z,2.67
2018-07-09T01:57:02.107Z,2.50
2018-07-09T01:59:30.319Z,2.40
2018-07-09T02:01:58.544Z,2.47
2018-07-09T02:04:26.750Z,2.37
2018-07-09T02:06:54.963Z,2.20
2018-07-09T02:09:23.161Z,2.40
2018-07-09T02:11:51.348Z,2.37
2018-07-09T02:14:19.569Z,2.27
2018-07-09T02:16:47.776Z,1.90
2018-07-09T02:19:16.002Z,2.10
2018-07-09T02:21:44.196Z,2.13
2018-07-09T02:24:12.403Z,2.47
2018-07-09T02:26:40.626Z,2.77
2018-07-09T02:29:08.848Z,2.73
2018-07-09T02:31:37.485Z,2.40
2018-07-09T02:34:05.737Z,2.20
2018-07-09T02:36:33.944Z,2.77
2018-07-09T02:39:02.424Z,2.57
2018-07-09T02:41:30.680Z,2.70
2018-07-09T02:43:58.880Z,2.60
2018-07-09T02:46:27.093Z,2.63
2018-07-09T02:48:55.280Z,2.47
2018-07-09T02:51:23.544Z,2.40
2018-07-09T02:53:51.754Z,2.57
2018-07-09T02:56:19.952Z,2.40
2018-07-09T02:58:48.160Z,2.50
2018-07-09T03:01:16.400Z,2.50
2018-07-09T03:03:44.556Z,2.90
2018-07-09T03:06:12.778Z,2.40
2018-07-09T03:08:41.941Z,2.77
2018-07-09T03:11:10.169Z,2.90
2018-07-09T03:13:38.426Z,2.80
2018-07-09T03:16:06.680Z,2.43
2018-07-09T03:18:34.912Z,2.70
2018-07-09T03:21:03.128Z,3.10
2018-07-09T03:23:31.336Z,2.83
2018-07-09T03:25:59.564Z,2.83
2018-07-09T03:28:27.777Z,2.60
2018-07-09T03:30:55.993Z,3.00
2018-07-09T03:33:24.196Z,2.63
2018-07-09T03:35:52.411Z,2.47
2018-07-09T03:38:20.634Z,2.67
2018-07-09T03:40:48.824Z,2.73
2018-07-09T03:43:17.073Z,2.97
2018-07-09T03:45:45.288Z,3.03
2018-07-09T03:48:13.484Z,3.10
2018-07-09T03:50:41.745Z,3.00
2018-07-09T03:53:09.948Z,3.17
2018-07-09T03:55:38.144Z,3.03
2018-07-09T03:58:06.341Z,2.60
2018-07-09T04:00:34.648Z,2.90
2018-07-09T04:03:02.861Z,2.77
2018-07-09T04:05:31.085Z,3.00
2018-07-09T04:07:59.284Z,3.60
2018-07-09T04:10:27.574Z,3.40
2018-07-09T04:12:55.794Z,2.90
2018-07-09T04:15:24.007Z,3.00
2018-07-09T04:17:52.216Z,3.00
2018-07-09T04:20:20.424Z,3.10
2018-07-09T04:22:48.670Z,3.07
2018-07-09T04:25:16.876Z,2.93
2018-07-09T04:27:45.071Z,3.10
2018-07-09T04:30:13.296Z,2.90
2018-07-09T04:32:41.503Z,2.97
2018-07-09T04:35:09.717Z,2.90
2018-07-09T04:39:59.243Z,3.23
2018-07-09T04:42:28.224Z,3.47
2018-07-09T04:44:56.537Z,3.33
2018-07-09T04:47:24.836Z,3.77
2018-07-09T04:49:53.228Z,3.67
2018-07-09T04:52:21.561Z,3.07
2018-07-09T04:54:49.966Z,3.33
2018-07-09T04:57:18.273Z,3.27
2018-07-09T04:59:46.619Z,3.47
2018-07-09T05:02:15.042Z,3.23
2018-07-09T05:04:43.273Z,3.43
2018-07-09T05:07:11.547Z,3.33
2018-07-09T05:09:39.792Z,4.00
2018-07-09T05:12:08.134Z,3.60
2018-07-09T05:14:36.351Z,3.73
2018-07-09T05:17:04.596Z,3.80
2018-07-09T05:19:32.928Z,3.13
2018-07-09T05:22:01.171Z,3.50
2018-07-09T05:24:29.456Z,3.30
2018-07-09T05:26:57.804Z,3.13
2018-07-09T05:29:26.057Z,3.10
2018-07-09T05:31:54.272Z,3.30
2018-07-09T05:34:22.608Z,3.30
2018-07-09T05:36:50.845Z,3.37
2018-07-09T05:39:19.225Z,2.83
2018-07-09T05:41:47.464Z,3.50
2018-07-09T05:44:15.711Z,2.50
2018-07-09T05:46:44.131Z,3.03
2018-07-09T05:49:12.600Z,2.97
2018-07-09T05:51:40.823Z,2.50
2018-07-09T05:54:09.163Z,2.87
2018-07-09T05:56:37.644Z,2.50
2018-07-09T05:59:05.899Z,2.43
2018-07-09T06:01:34.174Z,2.50
2018-07-09T06:04:02.465Z,2.47
2018-07-09T06:06:30.703Z,2.50
2018-07-09T06:08:59.023Z,2.20
2018-07-09T06:11:27.382Z,1.30
2018-07-09T06:13:55.659Z,1.73
2018-07-09T06:16:23.906Z,1.80
2018-07-09T06:18:52.240Z,1.77
2018-07-09T06:21:20.461Z,1.60
2018-07-09T06:23:48.699Z,1.40
2018-07-09T06:26:16.968Z,1.60
2018-07-09T06:28:45.234Z,1.00
2018-07-09T06:31:13.568Z,1.70
2018-07-09T06:33:42.292Z,1.40
2018-07-09T06:36:10.694Z,1.50
2018-07-09T06:38:39.109Z,1.40
2018-07-09T06:41:07.572Z,1.80
2018-07-09T06:43:35.811Z,1.60
2018-07-09T06:46:04.074Z,1.50
2018-07-09T06:48:32.651Z,1.37
2018-07-09T06:51:00.986Z,1.70
2018-07-09T06:53:29.258Z,1.50
2018-07-09T06:55:57.611Z,1.70
2018-07-09T06:58:25.532Z,1.50
2018-07-09T07:00:53.863Z,1.40
2018-07-09T07:03:22.216Z,1.90
2018-07-09T07:05:50.427Z,1.47
2018-07-09T07:08:18.889Z,1.60
2018-07-09T07:10:47.157Z,1.70
2018-07-09T07:13:15.496Z,1.67
2018-07-09T07:15:43.703Z,2.07
2018-07-09T07:18:12.139Z,1.77
2018-07-09T07:20:40.574Z,1.90
2018-07-09T07:23:08.860Z,1.80
2018-07-09T07:25:37.134Z,1.80
2018-07-09T07:28:05.494Z,1.70
2018-07-09T07:30:33.730Z,1.80
2018-07-09T07:33:02.057Z,1.70
2018-07-09T07:35:30.317Z,1.60
2018-07-09T07:37:58.747Z,1.70
2018-07-09T07:40:26.985Z,1.90
2018-07-09T07:42:55.369Z,1.70
2018-07-09T07:45:23.853Z,1.50
2018-07-09T07:47:52.169Z,2.00
2018-07-09T07:50:20.525Z,1.87
2018-07-09T07:52:48.687Z,2.00
2018-07-09T07:55:17.037Z,1.80
2018-07-09T07:57:45.544Z,2.20
2018-07-09T08:00:13.857Z,2.13
2018-07-09T08:02:42.104Z,2.03
2018-07-09T08:05:10.398Z,1.80
2018-07-09T08:07:38.692Z,2.33
2018-07-09T08:10:07.646Z,1.87
2018-07-09T08:15:04.500Z,2.73
2018-07-09T08:17:32.708Z,2.30
2018-07-09T08:20:00.971Z,2.10
2018-07-09T08:22:29.289Z,1.80
2018-07-09T08:24:57.586Z,1.80
2018-07-09T08:27:25.853Z,1.97
2018-07-09T08:29:54.099Z,1.93
2018-07-09T08:32:22.424Z,2.10
2018-07-09T08:34:50.652Z,2.10
2018-07-09T08:37:18.956Z,2.50
2018-07-09T08:39:47.341Z,1.93
2018-07-09T08:42:15.632Z,1.77
2018-07-09T08:44:44.293Z,2.53
2018-07-09T08:47:13.523Z,1.93
2018-07-09T08:49:41.858Z,2.00
2018-07-09T08:52:10.082Z,2.00
2018-07-09T08:54:38.364Z,2.07
2018-07-09T08:57:06.606Z,2.00
2018-07-09T08:59:35.197Z,2.03
2018-07-09T09:02:03.437Z,1.63
2018-07-09T09:04:31.779Z,1.90
2018-07-09T09:07:00.150Z,2.10
2018-07-09T09:09:28.472Z,2.27
2018-07-09T09:11:56.732Z,2.40
2018-07-09T09:14:24.975Z,1.90
2018-07-09T09:16:53.222Z,2.07
2018-07-09T09:19:21.453Z,2.00
2018-07-09T09:21:49.865Z,2.33
2018-07-09T09:24:18.088Z,1.97
2018-07-09T09:26:46.331Z,2.23
2018-07-09T09:29:14.737Z,2.40
2018-07-09T09:31:43.022Z,2.50
2018-07-09T09:34:11.274Z,2.40
2018-07-09T09:36:39.520Z,1.90
2018-07-09T09:39:09.159Z,2.50
2018-07-09T09:41:37.788Z,2.23
2018-07-09T09:44:06.029Z,2.30
2018-07-09T09:46:34.341Z,2.50
2018-07-09T09:49:02.589Z,2.30
2018-07-09T09:51:31.020Z,2.50
2018-07-09T09:53:59.325Z,2.57
2018-07-09T09:56:27.599Z,2.63
2018-07-09T09:58:55.934Z,2.40
2018-07-09T10:01:24.164Z,2.57
2018-07-09T10:03:52.683Z,3.00
2018-07-09T10:06:20.935Z,2.57
2018-07-09T10:08:49.212Z,2.80
2018-07-09T10:11:17.467Z,2.23
2018-07-09T10:13:46.037Z,2.60
2018-07-09T10:16:14.324Z,2.50
2018-07-09T10:18:42.950Z,2.93
2018-07-09T10:21:11.387Z,2.60
2018-07-09T10:23:39.887Z,2.77
2018-07-09T10:26:08.465Z,2.17
2018-07-09T10:28:37.009Z,2.47
2018-07-09T10:31:05.437Z,2.60
2018-07-09T10:33:33.667Z,2.67
2018-07-09T10:36:02.348Z,3.03
2018-07-09T10:38:30.621Z,2.93
2018-07-09T10:40:59.796Z,2.80
2018-07-09T10:43:28.624Z,3.33
2018-07-09T10:45:57.136Z,2.50
2018-07-09T10:48:25.348Z,2.80
2018-07-09T10:50:53.880Z,3.30
2018-07-09T10:53:22.198Z,3.10
2018-07-09T10:55:50.909Z,2.83
2018-07-09T10:58:18.892Z,2.70
2018-07-09T11:00:47.176Z,2.40
2018-07-09T11:03:15.381Z,2.80
2018-07-09T11:05:43.628Z,2.97
2018-07-09T11:08:11.923Z,3.20
2018-07-09T11:10:40.164Z,2.77
2018-07-09T11:13:08.503Z,5.03
2018-07-09T11:15:36.740Z,2.50
2018-07-09T11:18:04.996Z,3.13
2018-07-09T11:20:33.237Z,3.17
2018-07-09T11:23:01.451Z,2.80
2018-07-09T11:25:29.684Z,2.40
2018-07-09T11:27:57.932Z,2.50
2018-07-09T11:30:26.195Z,2.57
2018-07-09T11:32:54.508Z,2.40
2018-07-09T11:35:22.785Z,2.90
2018-07-09T11:37:51.144Z,2.33
2018-07-09T11:40:19.352Z,2.30
2018-07-09T11:42:47.612Z,2.53
2018-07-09T11:45:15.824Z,2.10
2018-07-09T11:47:44.121Z,2.13
2018-07-09T11:50:12.451Z,2.90
2018-07-09T11:52:40.735Z,3.03
2018-07-09T11:55:09.001Z,2.10
2018-07-09T11:57:37.204Z,1.87
2018-07-09T12:00:05.619Z,2.00
2018-07-09T12:02:33.911Z,2.10
2018-07-09T12:05:02.189Z,2.60
2018-07-09T12:07:30.476Z,2.17
2018-07-09T12:09:58.761Z,2.17
2018-07-09T12:12:26.992Z,2.50
2018-07-09T12:14:55.254Z,2.10
2018-07-09T12:17:23.749Z,2.20
2018-07-09T12:19:51.998Z,2.17
2018-07-09T12:22:20.246Z,2.17
2018-07-09T12:24:48.445Z,2.10
2018-07-09T12:27:16.667Z,2.03
2018-07-09T12:29:44.928Z,2.30
2018-07-09T12:32:13.197Z,2.70
2018-07-09T12:34:41.456Z,2.20
2018-07-09T12:37:09.664Z,2.47
2018-07-09T12:39:38.025Z,2.70
2018-07-09T12:42:06.238Z,1.83
2018-07-09T12:44:34.573Z,2.40
2018-07-09T12:47:02.813Z,2.07
2018-07-09T12:49:31.113Z,1.90
2018-07-09T12:51:59.400Z,2.13
2018-07-09T12:54:27.655Z,1.90
2018-07-09T12:56:55.941Z,1.80
2018-07-09T12:59:24.205Z,2.00
2018-07-09T13:01:52.439Z,2.30
2018-07-09T13:04:20.831Z,2.00
2018-07-09T13:06:49.083Z,2.00
2018-07-09T13:09:17.349Z,2.37
2018-07-09T13:11:45.573Z,2.10
2018-07-09T13:14:13.839Z,2.00
2018-07-09T13:16:42.142Z,1.47
2018-07-09T13:19:10.369Z,1.90
2018-07-09T13:21:38.625Z,2.17
2018-07-09T13:24:06.908Z,1.50
2018-07-09T13:26:35.134Z,1.80
2018-07-09T13:29:03.377Z,1.60
2018-07-09T13:31:31.616Z,1.30
2018-07-09T13:33:59.940Z,1.40
2018-07-09T13:36:28.178Z,1.42
2018-07-09T13:38:56.442Z,1.43
2018-07-09T13:41:24.676Z,1.40
2018-07-09T13:43:53.377Z,1.20
2018-07-09T13:46:21.630Z,1.33
2018-07-09T13:48:49.985Z,1.43
2018-07-09T13:51:18.297Z,1.60
2018-07-09T13:53:46.537Z,1.40
2018-07-09T13:56:14.803Z,1.40
2018-07-09T13:58:43.160Z,1.40
2018-07-09T14:01:12.027Z,1.27
2018-07-09T14:03:40.896Z,1.30
2018-07-09T14:06:09.225Z,1.40
2018-07-09T14:08:37.552Z,1.30
2018-07-09T14:11:05.869Z,1.50
2018-07-09T14:13:34.121Z,1.50
2018-07-09T14:16:02.424Z,1.20
2018-07-09T14:18:30.859Z,1.13
2018-07-09T14:20:59.047Z,1.40
2018-07-09T14:23:27.315Z,1.20
2018-07-09T14:25:55.572Z,1.27
2018-07-09T14:28:23.824Z,1.13
2018-07-09T14:30:52.065Z,1.37
2018-07-09T14:33:20.312Z,1.07
2018-07-09T14:35:48.657Z,1.20
2018-07-09T14:38:16.953Z,1.35
2018-07-09T14:40:45.298Z,1.20
2018-07-09T14:43:13.644Z,1.30
2018-07-09T14:45:42.582Z,1.20
2018-07-09T14:48:10.792Z,1.17
2018-07-09T14:50:39.085Z,1.12
2018-07-09T14:53:07.363Z,1.17
2018-07-09T14:55:35.637Z,1.20
2018-07-09T14:58:03.901Z,1.05
2018-07-09T15:00:32.197Z,1.10
2018-07-09T15:03:00.401Z,1.30
2018-07-09T15:05:28.660Z,1.30
2018-07-09T15:07:56.930Z,1.22
2018-07-09T15:10:25.204Z,1.20
2018-07-09T15:12:53.513Z,1.70
2018-07-09T15:15:21.734Z,1.30
2018-07-09T15:17:50.004Z,1.25
2018-07-09T15:20:18.295Z,1.47
2018-07-09T15:22:46.572Z,1.27
2018-07-09T15:25:14.880Z,1.30
2018-07-09T15:27:43.104Z,1.10
2018-07-09T15:30:23.021Z,1.30
2018-07-09T15:32:51.253Z,1.30
2018-07-09T15:35:19.453Z,1.07
2018-07-09T15:37:47.807Z,1.32
2018-07-09T15:40:16.098Z,1.22
2018-07-09T15:42:44.391Z,1.50
2018-07-09T15:45:12.662Z,1.20
2018-07-09T15:47:40.672Z,1.10
2018-07-09T15:50:09.000Z,1.17
2018-07-09T15:52:43.813Z,1.10
2018-07-09T15:55:12.113Z,1.00
2018-07-09T15:57:40.362Z,1.32
2018-07-09T16:00:08.706Z,1.35
2018-07-09T16:02:37.064Z,0.90
2018-07-09T16:05:05.353Z,1.15
2018-07-09T16:07:33.596Z,1.42
2018-07-09T16:10:01.818Z,1.02
2018-07-09T16:12:30.155Z,1.02
2018-07-09T16:14:58.448Z,1.00
2018-07-09T16:17:26.986Z,1.30
2018-07-09T16:19:55.360Z,1.30
2018-07-09T16:22:23.584Z,2.08
2018-07-09T16:24:51.808Z,1.15
2018-07-09T16:27:20.121Z,0.70
2018-07-09T16:29:48.422Z,1.30
2018-07-09T16:32:16.678Z,1.00
2018-07-09T16:34:45.025Z,1.32
2018-07-09T16:37:13.363Z,1.20
2018-07-09T16:39:41.641Z,1.27
2018-07-09T16:42:09.837Z,1.10
2018-07-09T16:44:38.079Z,1.25
2018-07-09T16:47:06.486Z,1.20
2018-07-09T16:49:34.703Z,1.35
2018-07-09T16:52:02.997Z,1.12
2018-07-09T16:54:31.216Z,1.32
2018-07-09T16:56:59.444Z,1.10
2018-07-09T16:59:27.768Z,1.10
2018-07-09T17:01:56.026Z,1.10
2018-07-09T17:04:24.273Z,1.10
2018-07-09T17:06:52.499Z,1.00
2018-07-09T17:09:20.725Z,1.30
2018-07-09T17:11:49.025Z,1.00
2018-07-09T17:14:17.356Z,1.20
2018-07-09T17:16:45.696Z,1.05
2018-07-09T17:19:14.004Z,1.05
2018-07-09T17:21:42.238Z,1.20
2018-07-09T17:24:10.475Z,1.10
2018-07-09T17:26:38.794Z,1.10
2018-07-09T17:29:06.916Z,1.50
2018-07-09T17:31:35.192Z,1.35
2018-07-09T17:34:03.428Z,1.30
2018-07-09T17:36:31.644Z,1.17
2018-07-09T17:38:59.893Z,1.50
2018-07-09T17:41:28.128Z,1.32
2018-07-09T17:43:56.375Z,1.72
2018-07-09T17:46:24.897Z,1.45
2018-07-09T17:48:53.141Z,1.30
2018-07-09T17:51:21.468Z,1.05
2018-07-09T17:53:50.028Z,1.47
2018-07-09T17:56:18.299Z,1.10
2018-07-09T17:58:46.572Z,1.30
2018-07-09T18:01:14.780Z,1.50
2018-07-09T18:03:43.116Z,1.65
2018-07-09T18:06:11.489Z,1.30
2018-07-09T18:08:39.692Z,1.32
2018-07-09T18:11:07.933Z,1.20
2018-07-09T18:13:36.174Z,1.53
2018-07-09T18:16:04.392Z,1.63
2018-07-09T18:18:32.634Z,1.40
2018-07-09T18:21:00.840Z,1.60
2018-07-09T18:23:28.840Z,1.40
2018-07-09T18:25:57.095Z,1.50
2018-07-09T18:28:25.478Z,1.43
2018-07-09T18:30:53.659Z,1.70
2018-07-09T18:33:21.867Z,1.50
2018-07-09T18:35:50.092Z,1.53
2018-07-09T18:38:18.369Z,1.87
2018-07-09T18:40:46.596Z,1.60
2018-07-09T18:43:14.840Z,1.00
2018-07-09T18:45:43.333Z,1.70
2018-07-09T18:48:11.744Z,1.40
2018-07-09T18:50:39.997Z,2.20
2018-07-09T18:53:08.400Z,1.67
2018-07-09T18:55:36.717Z,1.40
2018-07-09T18:58:04.986Z,1.83
2018-07-09T19:00:33.261Z,1.50
2018-07-09T19:03:01.682Z,1.70
2018-07-09T19:05:41.276Z,1.60
2018-07-09T19:08:09.558Z,1.40
2018-07-09T19:10:38.197Z,1.60
2018-07-09T19:13:06.440Z,1.50
2018-07-09T19:15:34.795Z,1.57
2018-07-09T19:18:15.708Z,1.50
2018-07-09T19:21:56.869Z,1.80
2018-07-09T19:24:24.159Z,1.70
2018-07-09T19:26:51.426Z,1.43
2018-07-09T19:29:18.679Z,1.93
2018-07-09T19:31:45.899Z,1.53
2018-07-09T19:34:13.111Z,1.93
2018-07-09T19:36:40.443Z,1.90
2018-07-09T19:39:08.235Z,2.00
2018-07-09T19:41:35.529Z,1.90
2018-07-09T19:44:02.700Z,1.70
2018-07-09T19:46:29.920Z,2.10
2018-07-09T19:48:57.166Z,2.40
2018-07-09T19:51:24.443Z,1.70
2018-07-09T19:53:51.791Z,1.90
2018-07-09T19:56:18.998Z,2.00
2018-07-09T19:58:46.211Z,2.03
2018-07-09T20:01:13.472Z,1.97
2018-07-09T20:03:40.714Z,1.70
2018-07-09T20:06:07.945Z,2.17
2018-07-09T20:08:40.445Z,2.00
2018-07-09T20:11:13.117Z,2.03
2018-07-09T20:14:11.219Z,1.70
2018-07-09T20:16:43.790Z,2.00
2018-07-09T20:19:11.061Z,2.10
2018-07-09T20:21:38.369Z,1.73
2018-07-09T20:24:05.541Z,1.90
2018-07-09T20:26:32.752Z,1.60
2018-07-09T20:28:59.968Z,2.10
2018-07-09T20:31:27.345Z,1.80
2018-07-09T20:33:54.640Z,2.27
2018-07-09T20:36:21.923Z,1.77
2018-07-09T20:38:49.164Z,2.00
2018-07-09T20:41:16.352Z,1.63
2018-07-09T20:43:43.561Z,2.00
2018-07-09T20:46:10.765Z,2.00
2018-07-09T20:48:37.964Z,2.40
2018-07-09T20:51:05.166Z,1.87
2018-07-09T20:53:32.443Z,2.00
2018-07-09T20:55:59.851Z,1.60
2018-07-09T20:58:27.039Z,1.70
2018-07-09T21:00:54.238Z,1.70
2018-07-09T21:03:21.562Z,1.73
2018-07-09T21:05:48.753Z,1.57
2018-07-09T21:08:15.965Z,1.97
2018-07-09T21:10:43.168Z,1.77
2018-07-09T21:13:10.395Z,1.73
2018-07-09T21:15:37.649Z,2.10
2018-07-09T21:18:04.811Z,1.73
2018-07-09T21:20:32.020Z,1.67
2018-07-09T21:22:59.260Z,2.20
2018-07-09T21:25:26.448Z,2.20
2018-07-09T21:27:53.689Z,2.03
2018-07-09T21:30:20.885Z,2.23
2018-07-09T21:32:48.111Z,2.23
2018-07-09T21:35:15.313Z,1.43
2018-07-09T21:37:42.623Z,3.20
2018-07-09T21:40:09.829Z,2.00
2018-07-09T21:42:37.070Z,1.80
2018-07-09T21:45:04.365Z,1.90
2018-07-09T21:47:31.542Z,1.97
2018-07-09T21:49:58.753Z,2.30
2018-07-09T21:52:25.964Z,2.20
2018-07-09T21:54:53.153Z,3.20
2018-07-09T21:57:20.353Z,2.67
2018-07-09T21:59:47.548Z,2.37
2018-07-09T22:02:14.808Z,1.80
2018-07-09T22:04:41.984Z,1.87
2018-07-09T22:07:09.205Z,2.00
2018-07-09T22:09:36.401Z,2.20
2018-07-09T22:12:03.601Z,2.10
2018-07-09T22:14:30.794Z,2.13
2018-07-09T22:16:57.984Z,2.57
2018-07-09T22:19:25.217Z,2.03
2018-07-09T22:21:52.487Z,2.50
2018-07-09T22:24:19.672Z,2.30
2018-07-09T22:26:46.908Z,2.33
2018-07-09T22:29:14.179Z,2.07
2018-07-09T22:31:42.409Z,2.47
2018-07-09T22:34:10.665Z,2.30
2018-07-09T22:36:38.931Z,2.00
2018-07-09T22:39:07.199Z,1.97
2018-07-09T22:41:35.886Z,1.80
2018-07-09T22:44:14.927Z,2.20
2018-07-09T22:46:43.196Z,2.20
2018-07-09T22:49:12.373Z,2.70
2018-07-09T22:51:40.611Z,1.93
2018-07-09T22:54:08.943Z,2.63
2018-07-09T22:56:37.169Z,2.40
2018-07-09T22:59:05.449Z,2.30
2018-07-09T23:01:33.657Z,2.00
2018-07-09T23:04:01.872Z,2.93
2018-07-09T23:06:30.176Z,2.23
2018-07-09T23:13:54.188Z,2.43
2018-07-09T23:16:45.161Z,1.83
2018-07-09T23:19:27.707Z,2.27
2018-07-09T23:22:07.404Z,2.37
2018-07-09T23:24:34.629Z,2.07
2018-07-09T23:27:01.869Z,1.70
2018-07-09T23:29:29.075Z,2.07
2018-07-09T23:31:56.300Z,1.90
2018-07-09T23:34:23.552Z,1.90
2018-07-09T23:36:50.763Z,2.03
2018-07-09T23:39:17.962Z,2.00
2018-07-09T23:41:45.212Z,2.07
2018-07-09T23:44:12.438Z,1.87
2018-07-09T23:46:43.137Z,1.97
2018-07-09T23:49:10.370Z,2.17
2018-07-09T23:51:37.585Z,1.63
2018-07-09T23:54:04.837Z,1.87
2018-07-09T23:58:53.403Z,1.77
